Time;durP1;ratioP1;P1;durP2;ratioP2;P2;SDS_P1;SDS_P2;PMS_P1;PMS_P2;Temp;Humidity;BMP_temperature;BMP_pressure;BME280_temperature;BME280_humidity;BME280_pressure;Samples;Min_cycle;Max_cycle;Signal;HPM_P1;HPM_P2
2021/04/19 00:01:32;;;;;;;50.15;22.67;;;;;;;;;;8260705;28;20068;-71
2021/04/19 00:05:37;;;;;;;71.68;28.88;;;;;;;;;;8227524;28;20471;-73
2021/04/19 00:09:41;;;;;;;74.50;30.20;;;;;;;;;;8243406;28;20472;-71
2021/04/19 00:13:46;;;;;;;69.97;28.73;;;;;;;;;;8260554;28;20076;-71
2021/04/19 00:17:50;;;;;;;61.17;25.67;;;;;;;;;;8242803;28;20383;-74
2021/04/19 00:21:55;;;;;;;77.00;28.98;;;;;;;;;;8243125;28;20420;-72
2021/04/19 00:26:00;;;;;;;71.70;28.42;;;;;;;;;;8260229;28;20356;-72
2021/04/19 00:30:08;;;;;;;78.82;28.17;;;;;;;;;;8261952;28;20067;-71
2021/04/19 00:34:12;;;;;;;65.45;29.13;;;;;;;;;;8262050;28;20390;-71
2021/04/19 00:38:16;;;;;;;76.30;29.83;;;;;;;;;;8259594;28;20060;-72
2021/04/19 00:42:21;;;;;;;70.45;26.65;;;;;;;;;;8259627;28;20478;-72
2021/04/19 00:46:25;;;;;;;66.68;27.85;;;;;;;;;;8242351;28;20368;-71
2021/04/19 00:50:34;;;;;;;61.63;26.60;;;;;;;;;;8241901;28;20418;-72
2021/04/19 00:54:38;;;;;;;;;;;;;;;;;;8260110;28;20052;-71
2021/04/19 00:58:46;;;;;;;54.30;24.15;;;;;;;;;;8259029;28;19921;-71
2021/04/19 01:02:50;;;;;;;56.00;23.50;;;;;;;;;;8271183;28;20415;-71
2021/04/19 01:07:00;;;;;;;48.75;24.98;;;;;;;;;;8258140;28;20478;-72
2021/04/19 01:11:06;;;;;;;49.80;23.38;;;;;;;;;;8244018;28;20348;-71
2021/04/19 01:15:14;;;;;;;53.17;24.65;;;;;;;;;;8242482;28;20067;-71
2021/04/19 01:19:19;;;;;;;;;;;;;;;;;;8257689;28;20414;-72
2021/04/19 01:23:25;;;;;;;43.05;20.92;;;;;;;;;;8242607;28;20274;-72
2021/04/19 01:27:30;;;;;;;39.95;19.73;;;;;;;;;;8224914;28;20376;-71
2021/04/19 01:31:35;;;;;;;46.15;21.90;;;;;;;;;;8258106;28;20501;-72
2021/04/19 01:35:46;;;;;;;42.90;20.90;;;;;;;;;;8240523;28;20049;-71
2021/04/19 01:39:51;;;;;;;41.45;20.15;;;;;;;;;;8257722;28;20075;-72
2021/04/19 01:43:55;;;;;;;36.28;17.45;;;;;;;;;;8240767;28;20394;-71
2021/04/19 01:47:59;;;;;;;37.97;17.63;;;;;;;;;;8256661;28;20479;-72
2021/04/19 01:52:05;;;;;;;38.50;17.73;;;;;;;;;;8240839;28;20353;-71
2021/04/19 01:56:11;;;;;;;28.77;14.95;;;;;;;;;;8240608;28;20476;-71
2021/04/19 02:00:23;;;;;;;31.00;15.90;;;;;;;;;;8257822;28;20395;-71
2021/04/19 02:05:30;;;;;;;33.92;15.43;;;;;;;;;;8241180;28;20463;-72
2021/04/19 02:09:53;;;;;;;34.25;16.08;;;;;;;;;;8251193;28;20460;-71
2021/04/19 02:14:18;;;;;;;32.83;15.95;;;;;;;;;;8224363;28;20644;-72
2021/04/19 02:18:47;;;;;;;31.33;16.45;;;;;;;;;;8255712;28;20460;-71
2021/04/19 02:23:01;;;;;;;33.53;16.63;;;;;;;;;;8259476;28;20509;-71
2021/04/19 02:27:18;;;;;;;37.22;17.67;;;;;;;;;;8257594;28;20057;-71
2021/04/19 02:31:42;;;;;;;33.72;16.77;;;;;;;;;;8241452;28;20372;-72
2021/04/19 02:35:48;;;;;;;32.28;16.88;;;;;;;;;;8239560;28;20490;-71
2021/04/19 02:39:53;;;;;;;34.25;17.17;;;;;;;;;;8255473;28;20445;-72
2021/04/19 02:43:59;;;;;;;34.47;16.33;;;;;;;;;;8239708;28;20501;-71
2021/04/19 02:48:18;;;;;;;29.83;15.80;;;;;;;;;;8241321;28;20467;-72
2021/04/19 02:52:29;;;;;;;31.73;16.00;;;;;;;;;;8239596;28;20052;-75
2021/04/19 02:56:35;;;;;;;30.77;15.70;;;;;;;;;;8239285;28;20407;-72
2021/04/19 03:00:48;;;;;;;33.58;17.80;;;;;;;;;;8256636;28;20471;-71
2021/04/19 03:04:54;;;;;;;34.17;17.30;;;;;;;;;;8238535;28;20436;-71
2021/04/19 03:09:02;;;;;;;37.63;17.65;;;;;;;;;;8256294;28;20075;-72
2021/04/19 03:13:09;;;;;;;53.78;23.80;;;;;;;;;;8240502;28;20459;-71
2021/04/19 03:17:16;;;;;;;41.83;20.00;;;;;;;;;;8244661;28;20379;-72
2021/04/19 03:21:41;;;;;;;34.83;18.02;;;;;;;;;;8248210;28;20475;-71
2021/04/19 03:25:52;;;;;;;34.70;18.20;;;;;;;;;;8246439;28;20056;-72
2021/04/19 03:30:00;;;;;;;35.35;19.20;;;;;;;;;;8246252;28;20436;-71
2021/04/19 03:34:38;;;;;;;33.33;17.45;;;;;;;;;;8227420;28;20533;-72
2021/04/19 03:38:44;;;;;;;;;;;;;;;;;;8239866;28;20411;-72
2021/04/19 03:42:57;;;;;;;37.85;17.65;;;;;;;;;;8244457;28;20256;-71
2021/04/19 03:47:05;;;;;;;42.50;20.23;;;;;;;;;;8244871;28;20052;-72
2021/04/19 03:51:27;;;;;;;35.65;16.90;;;;;;;;;;8260630;28;20363;-73
2021/04/19 03:55:33;;;;;;;42.05;21.48;;;;;;;;;;8228461;28;20464;-72
2021/04/19 03:59:40;;;;;;;42.90;20.75;;;;;;;;;;8244287;28;20498;-72
2021/04/19 04:03:51;;;;;;;37.70;20.85;;;;;;;;;;8244259;28;20483;-72
2021/04/19 04:08:26;;;;;;;45.95;22.75;;;;;;;;;;8248258;28;20498;-72
2021/04/19 04:12:31;;;;;;;46.45;21.65;;;;;;;;;;8226658;28;20407;-71
2021/04/19 04:16:45;;;;;;;45.38;21.48;;;;;;;;;;8260739;28;20384;-71
2021/04/19 04:20:56;;;;;;;45.70;22.35;;;;;;;;;;8244137;28;20469;-71
2021/04/19 04:25:06;;;;;;;59.35;27.38;;;;;;;;;;8258247;28;20057;-72
2021/04/19 04:29:11;;;;;;;107.15;38.70;;;;;;;;;;8243109;28;20364;-72
2021/04/19 04:33:22;;;;;;;79.72;31.38;;;;;;;;;;8258857;28;20480;-72
2021/04/19 04:37:36;;;;;;;63.35;29.80;;;;;;;;;;8259538;28;20494;-73
2021/04/19 04:41:51;;;;;;;50.05;23.77;;;;;;;;;;8259017;28;20387;-73
2021/04/19 04:46:24;;;;;;;39.65;18.50;;;;;;;;;;8243276;28;20518;-74
2021/04/19 04:50:45;;;;;;;35.75;16.45;;;;;;;;;;8258570;28;20383;-74
2021/04/19 04:54:50;;;;;;;38.90;17.60;;;;;;;;;;8260662;28;20386;-74
2021/04/19 04:58:57;;;;;;;39.40;17.92;;;;;;;;;;8260177;28;20471;-74
2021/04/19 05:03:03;;;;;;;51.38;20.23;;;;;;;;;;8241763;28;20455;-74
2021/04/19 05:07:08;;;;;;;56.08;24.45;;;;;;;;;;8242197;28;20049;-74
2021/04/19 05:11:13;;;;;;;55.65;25.58;;;;;;;;;;8242649;28;20382;-74
2021/04/19 05:15:17;;;;;;;49.42;23.25;;;;;;;;;;8242427;28;20364;-74
2021/04/19 05:19:20;;;;;;;63.83;26.73;;;;;;;;;;8258583;28;20479;-75
2021/04/19 05:23:25;;;;;;;54.65;24.98;;;;;;;;;;8257918;28;20456;-74
2021/04/19 05:27:35;;;;;;;46.35;22.48;;;;;;;;;;8242975;28;20052;-74
2021/04/19 05:31:39;;;;;;;40.17;21.17;;;;;;;;;;8240965;28;20387;-76
2021/04/19 05:35:45;;;;;;;48.63;23.58;;;;;;;;;;8259081;28;20382;-76
2021/04/19 05:39:49;;;;;;;45.20;23.13;;;;;;;;;;8243388;28;20049;-74
2021/04/19 05:43:53;;;;;;;49.45;24.23;;;;;;;;;;8259205;28;20082;-75
2021/04/19 05:48:00;;;;;;;44.58;22.00;;;;;;;;;;8261285;28;20491;-74
2021/04/19 05:52:07;;;;;;;55.53;22.00;;;;;;;;;;8258574;28;20372;-75
2021/04/19 05:56:26;;;;;;;87.80;31.33;;;;;;;;;;8241686;28;20338;-75
2021/04/19 06:00:36;;;;;;;154.57;43.05;;;;;;;;;;8242295;28;20565;-76
2021/04/19 06:05:00;;;;;;;77.43;30.17;;;;;;;;;;8241868;28;20074;-75
2021/04/19 06:09:17;;;;;;;60.33;28.00;;;;;;;;;;8241749;28;20049;-75
2021/04/19 06:13:49;;;;;;;58.97;27.85;;;;;;;;;;8258001;28;20375;-75
2021/04/19 06:17:56;;;;;;;48.15;21.77;;;;;;;;;;8240623;28;20376;-75
2021/04/19 06:22:02;;;;;;;46.70;21.58;;;;;;;;;;8242309;28;20045;-76
2021/04/19 06:26:08;;;;;;;48.72;23.02;;;;;;;;;;8239952;28;20067;-76
2021/04/19 06:30:19;;;;;;;40.90;19.67;;;;;;;;;;8256694;28;20533;-76
2021/04/19 06:34:24;;;;;;;51.63;21.60;;;;;;;;;;8258785;28;20479;-75
2021/04/19 06:38:30;;;;;;;47.88;21.73;;;;;;;;;;8256801;28;20395;-74
2021/04/19 06:42:36;;;;;;;60.58;30.40;;;;;;;;;;8256786;28;20400;-75
2021/04/19 06:46:43;;;;;;;58.03;27.58;;;;;;;;;;8259361;28;20362;-75
2021/04/19 06:50:48;;;;;;;59.67;27.63;;;;;;;;;;8264107;28;20388;-76
2021/04/19 06:54:54;;;;;;;63.20;29.88;;;;;;;;;;8263705;28;20080;-75
2021/04/19 06:58:57;;;;;;;55.30;27.55;;;;;;;;;;8263345;28;20411;-75
2021/04/19 07:03:06;;;;;;;70.20;30.85;;;;;;;;;;8264004;28;20456;-75
2021/04/19 07:07:18;;;;;;;67.85;33.92;;;;;;;;;;8264523;28;20472;-75
2021/04/19 07:11:26;;;;;;;68.50;29.00;;;;;;;;;;8247537;28;20440;-76
2021/04/19 07:15:31;;;;;;;57.80;28.63;;;;;;;;;;8262560;28;20377;-76
2021/04/19 07:19:35;;;;;;;63.67;31.58;;;;;;;;;;8245034;28;20798;-76
2021/04/19 07:23:42;;;;;;;56.63;29.63;;;;;;;;;;8246228;28;20353;-75
2021/04/19 07:27:48;;;;;;;71.50;36.55;;;;;;;;;;8262735;28;20415;-75
2021/04/19 07:31:55;;;;;;;158.43;80.03;;;;;;;;;;8243405;28;20412;-75
2021/04/19 07:36:28;;;;;;;81.57;40.88;;;;;;;;;;8228500;28;20482;-75
2021/04/19 07:40:35;;;;;;;70.15;33.80;;;;;;;;;;8229663;28;20392;-75
2021/04/19 07:44:48;;;;;;;64.88;34.20;;;;;;;;;;8229865;28;20460;-75
2021/04/19 07:48:53;;;;;;;69.20;31.85;;;;;;;;;;8228101;28;20357;-75
2021/04/19 07:53:08;;;;;;;65.68;33.50;;;;;;;;;;8229037;28;20494;-75
2021/04/19 07:57:13;;;;;;;72.93;32.35;;;;;;;;;;8245252;28;20435;-75
2021/04/19 08:01:18;;;;;;;73.22;34.70;;;;;;;;;;8229375;28;20492;-75
2021/04/19 08:05:34;;;;;;;58.85;29.70;;;;;;;;;;8228503;28;20511;-78
2021/04/19 08:09:38;;;;;;;64.97;31.38;;;;;;;;;;8229748;28;20102;-76
2021/04/19 08:13:44;;;;;;;73.97;37.05;;;;;;;;;;8227381;28;20494;-75
2021/04/19 08:17:49;;;;;;;58.17;29.08;;;;;;;;;;8242627;28;20469;-76
2021/04/19 08:22:14;;;;;;;59.63;28.88;;;;;;;;;;8227025;28;20054;-77
2021/04/19 08:26:19;;;;;;;58.47;29.90;;;;;;;;;;8227851;28;20361;-74
2021/04/19 08:30:23;;;;;;;57.20;27.58;;;;;;;;;;8232076;28;20063;-76
2021/04/19 08:34:28;;;;;;;60.60;29.52;;;;;;;;;;8262091;28;20071;-75
2021/04/19 08:38:36;;;;;;;64.50;31.02;;;;;;;;;;8243067;28;20506;-75
2021/04/19 08:42:43;;;;;;;60.70;31.58;;;;;;;;;;8264784;28;20351;-75
2021/04/19 08:46:48;;;;;;;58.80;30.08;;;;;;;;;;8245001;28;20045;-74
2021/04/19 08:50:53;;;;;;;61.63;30.70;;;;;;;;;;8242448;28;20486;-75
2021/04/19 08:54:57;;;;;;;57.50;29.40;;;;;;;;;;8260633;28;20621;-75
2021/04/19 08:59:03;;;;;;;69.63;33.22;;;;;;;;;;8226025;28;20452;-74
2021/04/19 09:03:11;;;;;;;65.15;32.90;;;;;;;;;;8243218;28;20464;-75
2021/04/19 09:07:29;;;;;;;67.30;31.88;;;;;;;;;;8257797;28;20068;-75
2021/04/19 09:11:34;;;;;;;58.05;28.73;;;;;;;;;;8239506;28;20083;-75
2021/04/19 09:15:40;;;;;;;50.97;26.63;;;;;;;;;;8259316;28;20460;-74
2021/04/19 09:19:56;;;;;;;56.08;25.70;;;;;;;;;;8241877;28;20391;-75
2021/04/19 09:24:01;;;;;;;48.35;26.20;;;;;;;;;;8242071;28;20482;-74
2021/04/19 09:28:06;;;;;;;50.35;23.95;;;;;;;;;;8258203;28;20341;-75
2021/04/19 09:32:22;;;;;;;48.97;24.90;;;;;;;;;;8223784;28;20366;-75
2021/04/19 09:36:51;;;;;;;53.85;26.50;;;;;;;;;;8225206;28;20481;-75
2021/04/19 09:41:05;;;;;;;56.20;28.25;;;;;;;;;;8226571;28;20049;-75
2021/04/19 09:45:10;;;;;;;57.03;27.25;;;;;;;;;;8226848;28;20076;-75
2021/04/19 09:49:21;;;;;;;118.70;44.55;;;;;;;;;;8224042;28;20487;-75
2021/04/19 09:53:27;;;;;;;75.38;32.72;;;;;;;;;;8225915;28;20369;-76
2021/04/19 09:57:44;;;;;;;59.72;29.63;;;;;;;;;;8211948;28;20367;-76
2021/04/19 10:01:52;;;;;;;72.15;34.80;;;;;;;;;;8224119;28;20480;-75
2021/04/19 10:06:02;;;;;;;64.68;32.45;;;;;;;;;;8224381;28;20410;-75
2021/04/19 10:10:11;;;;;;;54.25;29.85;;;;;;;;;;8224461;28;20498;-74
2021/04/19 10:14:18;;;;;;;51.28;26.67;;;;;;;;;;8208969;28;20087;-76
2021/04/19 10:18:41;;;;;;;41.63;22.70;;;;;;;;;;8223336;28;20419;-74
2021/04/19 10:22:45;;;;;;;38.90;20.92;;;;;;;;;;8225039;28;20041;-74
2021/04/19 10:26:50;;;;;;;53.20;27.38;;;;;;;;;;8228222;28;20056;-74
2021/04/19 10:31:20;;;;;;;46.40;25.17;;;;;;;;;;8232744;28;20484;-74
2021/04/19 10:35:37;;;;;;;31.95;18.67;;;;;;;;;;8256422;28;20392;-74
2021/04/19 10:39:51;;;;;;;35.08;20.80;;;;;;;;;;8245673;28;20499;-74
2021/04/19 10:43:56;;;;;;;27.73;16.63;;;;;;;;;;8240396;28;20372;-74
2021/04/19 10:48:20;;;;;;;26.50;15.75;;;;;;;;;;8241254;28;20424;-74
2021/04/19 10:52:25;;;;;;;30.92;17.30;;;;;;;;;;8242358;28;20395;-74
2021/04/19 10:56:30;;;;;;;48.15;29.45;;;;;;;;;;8257578;28;20595;-75
2021/04/19 11:00:35;;;;;;;36.67;19.77;;;;;;;;;;8239594;28;20464;-74
2021/04/19 11:04:40;;;;;;;33.10;17.98;;;;;;;;;;8257092;28;20444;-74
2021/04/19 11:08:48;;;;;;;47.67;28.58;;;;;;;;;;8239372;28;20452;-74
2021/04/19 11:13:02;;;;;;;21.48;13.82;;;;;;;;;;8238525;28;20079;-75
2021/04/19 11:17:08;;;;;;;29.85;15.20;;;;;;;;;;8255658;28;20045;-74
2021/04/19 11:21:28;;;;;;;28.02;13.73;;;;;;;;;;8239098;28;20455;-74
2021/04/19 11:25:33;;;;;;;32.47;17.88;;;;;;;;;;8254276;28;20049;-74
2021/04/19 11:29:41;;;;;;;31.40;19.20;;;;;;;;;;8255188;28;20520;-74
2021/04/19 11:34:05;;;;;;;39.15;20.50;;;;;;;;;;8240210;28;20490;-74
2021/04/19 11:38:30;;;;;;;34.58;18.65;;;;;;;;;;8250936;28;20436;-74
2021/04/19 11:42:36;;;;;;;35.05;19.50;;;;;;;;;;8261323;28;20071;-74
2021/04/19 11:46:48;;;;;;;26.52;15.70;;;;;;;;;;8261719;28;20383;-73
2021/04/19 11:50:53;;;;;;;25.45;15.73;;;;;;;;;;8262054;28;20459;-74
2021/04/19 11:54:57;;;;;;;24.95;17.30;;;;;;;;;;8243565;28;20480;-74
2021/04/19 11:59:01;;;;;;;29.23;15.85;;;;;;;;;;8259322;28;20455;-73
2021/04/19 12:03:07;;;;;;;26.65;14.57;;;;;;;;;;8263159;28;20410;-73
2021/04/19 12:07:11;;;;;;;24.23;15.15;;;;;;;;;;8244418;28;20490;-73
2021/04/19 12:11:18;;;;;;;23.85;13.88;;;;;;;;;;8263516;28;20472;-73
2021/04/19 12:15:22;;;;;;;27.20;12.15;;;;;;;;;;8260848;28;20472;-73
2021/04/19 12:19:27;;;;;;;23.42;13.48;;;;;;;;;;8260505;28;20076;-74
2021/04/19 12:23:32;;;;;;;25.27;14.18;;;;;;;;;;8260395;28;20076;-73
2021/04/19 12:27:36;;;;;;;17.33;10.43;;;;;;;;;;8244783;28;20464;-73
2021/04/19 12:31:41;;;;;;;21.33;9.75;;;;;;;;;;8260533;28;20471;-73
2021/04/19 12:35:50;;;;;;;27.20;15.88;;;;;;;;;;8242305;28;20533;-73
2021/04/19 12:39:54;;;;;;;19.23;9.40;;;;;;;;;;8241791;28;20048;-73
2021/04/19 12:43:59;;;;;;;15.93;8.30;;;;;;;;;;8263098;28;20421;-73
2021/04/19 12:48:07;;;;;;;15.05;7.88;;;;;;;;;;8241545;28;20379;-73
2021/04/19 12:52:11;;;;;;;34.00;26.83;;;;;;;;;;8261027;28;20498;-73
2021/04/19 12:56:17;;;;;;;10.70;6.13;;;;;;;;;;8259559;28;20057;-73
2021/04/19 13:00:21;;;;;;;11.70;4.95;;;;;;;;;;8241918;28;20041;-73
2021/04/19 13:04:25;;;;;;;8.60;4.32;;;;;;;;;;8261014;28;20363;-73
2021/04/19 13:08:30;;;;;;;5.40;3.92;;;;;;;;;;8259489;28;20484;-73
2021/04/19 13:12:34;;;;;;;5.50;3.33;;;;;;;;;;8261139;28;20351;-72
2021/04/19 13:16:39;;;;;;;11.85;4.95;;;;;;;;;;8241125;28;20033;-72
2021/04/19 13:20:45;;;;;;;14.20;4.82;;;;;;;;;;8240961;28;20045;-73
2021/04/19 13:24:49;;;;;;;7.72;4.63;;;;;;;;;;8258339;28;20102;-72
2021/04/19 13:28:54;;;;;;;7.32;3.92;;;;;;;;;;8241619;28;20351;-72
2021/04/19 13:32:59;;;;;;;6.10;3.33;;;;;;;;;;8258340;28;20391;-73
2021/04/19 13:37:04;;;;;;;7.97;3.78;;;;;;;;;;8241920;28;20368;-73
2021/04/19 13:41:09;;;;;;;9.40;4.45;;;;;;;;;;8257978;28;20411;-73
2021/04/19 13:45:22;;;;;;;7.53;4.53;;;;;;;;;;8257074;28;20388;-72
2021/04/19 13:49:27;;;;;;;6.68;4.18;;;;;;;;;;8241904;28;20463;-72
2021/04/19 13:53:29;;;;;;;5.20;3.17;;;;;;;;;;8239895;28;20505;-73
2021/04/19 13:57:32;;;;;;;11.40;6.38;;;;;;;;;;8256201;28;20384;-72
2021/04/19 14:01:37;;;;;;;9.90;4.78;;;;;;;;;;8222636;28;20379;-72
2021/04/19 14:05:42;;;;;;;8.32;3.30;;;;;;;;;;8256623;28;20368;-72
2021/04/19 14:09:46;;;;;;;5.05;3.53;;;;;;;;;;8239799;28;20365;-72
2021/04/19 14:13:50;;;;;;;22.63;9.52;;;;;;;;;;8240045;28;20068;-72
2021/04/19 14:17:54;;;;;;;14.93;6.88;;;;;;;;;;8239955;28;20478;-72
2021/04/19 14:21:59;;;;;;;48.35;19.02;;;;;;;;;;8240568;28;20569;-72
2021/04/19 14:26:07;;;;;;;37.10;15.23;;;;;;;;;;8257487;28;20067;-72
2021/04/19 14:30:19;;;;;;;76.22;27.35;;;;;;;;;;8257494;28;20758;-72
2021/04/19 14:34:22;;;;;;;28.98;14.60;;;;;;;;;;8240747;28;20060;-72
2021/04/19 14:38:26;;;;;;;17.60;9.90;;;;;;;;;;8256635;28;20488;-73
2021/04/19 14:42:31;;;;;;;6.45;4.72;;;;;;;;;;8256659;28;20371;-73
2021/04/19 14:46:35;;;;;;;8.57;5.82;;;;;;;;;;8256978;28;20474;-73
2021/04/19 14:50:40;;;;;;;5.47;4.28;;;;;;;;;;8256041;28;20444;-72
2021/04/19 14:54:47;;;;;;;16.33;8.48;;;;;;;;;;8254977;28;20497;-73
2021/04/19 14:58:54;;;;;;;12.25;7.10;;;;;;;;;;8255304;28;20471;-72
2021/04/19 15:02:59;;;;;;;16.80;8.40;;;;;;;;;;8239554;28;20367;-72
2021/04/19 15:07:04;;;;;;;6.03;4.18;;;;;;;;;;8238019;28;20365;-72
2021/04/19 15:11:08;;;;;;;8.93;4.07;;;;;;;;;;8262697;28;20384;-72
2021/04/19 15:15:13;;;;;;;19.77;9.32;;;;;;;;;;8246951;28;20464;-72
2021/04/19 15:19:17;;;;;;;13.93;7.68;;;;;;;;;;8244486;28;20395;-72
2021/04/19 15:23:22;;;;;;;5.47;4.05;;;;;;;;;;8264046;28;20488;-72
2021/04/19 15:27:31;;;;;;;10.43;4.30;;;;;;;;;;8262339;28;20439;-72
2021/04/19 15:31:39;;;;;;;6.82;5.40;;;;;;;;;;8262301;28;20570;-72
2021/04/19 15:35:43;;;;;;;10.90;5.53;;;;;;;;;;8245683;28;20488;-72
2021/04/19 15:39:48;;;;;;;8.85;4.93;;;;;;;;;;8244857;28;20418;-72
2021/04/19 15:43:52;;;;;;;9.57;3.88;;;;;;;;;;8264246;28;20390;-72
2021/04/19 15:47:57;;;;;;;9.90;5.07;;;;;;;;;;8263755;28;20475;-74
2021/04/19 15:52:02;;;;;;;13.27;4.85;;;;;;;;;;8263102;28;20053;-72
2021/04/19 15:56:05;;;;;;;7.43;4.25;;;;;;;;;;8242564;28;20582;-72
2021/04/19 16:00:11;;;;;;;7.10;4.55;;;;;;;;;;8260555;28;20076;-72
2021/04/19 16:04:16;;;;;;;8.55;5.38;;;;;;;;;;8257917;28;20511;-72
2021/04/19 16:08:20;;;;;;;10.20;5.53;;;;;;;;;;8244013;28;20363;-72
2021/04/19 16:12:24;;;;;;;14.68;6.30;;;;;;;;;;8242808;28;20072;-72
2021/04/19 16:16:44;;;;;;;8.35;5.13;;;;;;;;;;8244133;28;20486;-72
2021/04/19 16:20:48;;;;;;;7.60;5.38;;;;;;;;;;8259838;28;20407;-72
2021/04/19 16:24:52;;;;;;;10.15;5.07;;;;;;;;;;8258655;28;20450;-72
2021/04/19 16:28:57;;;;;;;12.95;6.75;;;;;;;;;;8260313;28;20383;-72
2021/04/19 16:33:02;;;;;;;32.88;15.45;;;;;;;;;;8258524;28;20484;-71
2021/04/19 16:37:07;;;;;;;16.73;9.07;;;;;;;;;;8256591;28;20471;-72
2021/04/19 16:41:11;;;;;;;11.20;7.30;;;;;;;;;;8258540;28;20468;-72
2021/04/19 16:45:17;;;;;;;19.77;10.15;;;;;;;;;;8259521;28;20444;-71
2021/04/19 16:49:22;;;;;;;10.57;6.95;;;;;;;;;;8242554;28;20387;-72
2021/04/19 16:53:26;;;;;;;17.73;7.97;;;;;;;;;;8258846;28;20487;-71
2021/04/19 16:57:31;;;;;;;19.52;10.48;;;;;;;;;;8259026;28;20479;-72
2021/04/19 17:01:35;;;;;;;25.73;10.60;;;;;;;;;;8259556;28;20076;-71
2021/04/19 17:05:40;;;;;;;19.75;10.30;;;;;;;;;;8261414;28;20067;-72
2021/04/19 17:09:45;;;;;;;84.85;25.73;;;;;;;;;;8261513;28;20360;-72
2021/04/19 17:13:49;;;;;;;59.58;23.35;;;;;;;;;;8240083;28;20499;-71
2021/04/19 17:18:03;;;;;;;33.45;13.55;;;;;;;;;;8257647;28;20079;-72
2021/04/19 17:22:10;;;;;;;21.70;10.53;;;;;;;;;;8258844;28;20386;-72
2021/04/19 17:26:15;;;;;;;67.65;25.42;;;;;;;;;;8257216;28;20056;-72
2021/04/19 17:30:26;;;;;;;23.05;12.50;;;;;;;;;;8257968;28;20480;-71
2021/04/19 17:34:30;;;;;;;45.90;26.92;;;;;;;;;;8239611;28;20476;-71
2021/04/19 17:38:35;;;;;;;93.25;41.95;;;;;;;;;;8257483;28;20476;-72
2021/04/19 17:42:41;;;;;;;25.75;14.98;;;;;;;;;;8258753;28;20476;-72
2021/04/19 17:46:47;;;;;;;15.38;8.60;;;;;;;;;;8238746;28;20364;-71
2021/04/19 17:50:52;;;;;;;22.15;10.40;;;;;;;;;;8258310;28;20498;-71
2021/04/19 17:54:56;;;;;;;23.27;11.15;;;;;;;;;;8260261;28;20364;-71
2021/04/19 17:59:00;;;;;;;24.38;12.48;;;;;;;;;;8257867;28;20072;-71
2021/04/19 18:03:05;;;;;;;52.33;24.05;;;;;;;;;;8257311;28;20455;-71
2021/04/19 18:07:23;;;;;;;18.98;10.38;;;;;;;;;;8258307;28;20478;-72
2021/04/19 18:11:28;;;;;;;40.17;21.92;;;;;;;;;;8258393;28;20071;-71
2021/04/19 18:15:33;;;;;;;33.17;15.65;;;;;;;;;;8256510;28;20479;-71
2021/04/19 18:19:39;;;;;;;41.50;19.35;;;;;;;;;;8241024;28;20360;-71
2021/04/19 18:23:44;;;;;;;29.02;14.82;;;;;;;;;;8239758;28;20072;-71
2021/04/19 18:27:49;;;;;;;33.63;20.63;;;;;;;;;;8239385;28;20048;-71
2021/04/19 18:31:55;;;;;;;71.13;31.50;;;;;;;;;;8256605;28;20394;-72
2021/04/19 18:36:00;;;;;;;65.57;26.75;;;;;;;;;;8255195;28;20474;-71
2021/04/19 18:40:06;;;;;;;327.88;131.98;;;;;;;;;;8258681;28;20057;-71
2021/04/19 18:44:11;;;;;;;187.98;78.47;;;;;;;;;;8257341;28;20337;-71
2021/04/19 18:48:20;;;;;;;60.92;33.25;;;;;;;;;;8256641;28;20661;-71
2021/04/19 18:52:27;;;;;;;12.23;7.70;;;;;;;;;;8256767;28;20452;-71
2021/04/19 18:56:32;;;;;;;112.20;35.53;;;;;;;;;;8257275;28;20487;-71
2021/04/19 19:00:38;;;;;;;120.95;38.55;;;;;;;;;;8238847;28;20076;-71
2021/04/19 19:04:42;;;;;;;39.08;16.20;;;;;;;;;;8255915;28;20361;-71
2021/04/19 19:08:48;;;;;;;317.70;101.35;;;;;;;;;;8257463;28;20045;-71
2021/04/19 19:12:53;;;;;;;446.20;148.20;;;;;;;;;;8255837;28;20053;-71
2021/04/19 19:16:57;;;;;;;301.35;93.25;;;;;;;;;;8255343;28;20049;-71
2021/04/19 19:21:04;;;;;;;370.00;120.03;;;;;;;;;;8238603;28;20376;-71
2021/04/19 19:25:11;;;;;;;176.35;55.38;;;;;;;;;;8255697;28;20057;-71
2021/04/19 19:29:25;;;;;;;51.15;20.95;;;;;;;;;;8254089;28;20375;-71
2021/04/19 19:33:30;;;;;;;55.05;20.98;;;;;;;;;;8223113;28;20437;-71
2021/04/19 19:37:35;;;;;;;33.63;15.27;;;;;;;;;;8254212;28;20487;-71
2021/04/19 19:41:39;;;;;;;25.08;11.45;;;;;;;;;;8258623;28;20365;-71
2021/04/19 19:45:44;;;;;;;19.08;10.35;;;;;;;;;;8256814;28;20513;-71
2021/04/19 19:49:49;;;;;;;19.13;8.77;;;;;;;;;;8239494;28;20492;-70
2021/04/19 19:53:54;;;;;;;15.32;8.65;;;;;;;;;;8258289;28;20052;-71
2021/04/19 19:58:01;;;;;;;16.50;7.63;;;;;;;;;;8264180;28;20494;-71
2021/04/19 20:02:26;;;;;;;23.58;11.10;;;;;;;;;;8420171;27;20856;-71
2021/04/19 20:06:30;;;;;;;21.27;10.88;;;;;;;;;;8386566;28;20357;-73
2021/04/19 20:10:35;;;;;;;25.25;13.07;;;;;;;;;;8384885;28;20074;-70
2021/04/19 20:14:39;;;;;;;27.67;12.73;;;;;;;;;;8384093;28;20040;-71
2021/04/19 20:18:43;;;;;;;19.10;10.60;;;;;;;;;;8384753;28;20603;-71
2021/04/19 20:22:48;;;;;;;20.80;10.30;;;;;;;;;;8385340;27;20051;-71
2021/04/19 20:26:53;;;;;;;39.50;16.95;;;;;;;;;;8384796;27;20357;-71
2021/04/19 20:30:58;;;;;;;49.42;17.38;;;;;;;;;;8383552;28;20454;-71
2021/04/19 20:35:11;;;;;;;39.55;14.95;;;;;;;;;;8387329;27;20373;-71
2021/04/19 20:39:32;;;;;;;32.78;14.18;;;;;;;;;;8383881;28;20074;-71
2021/04/19 20:43:36;;;;;;;42.00;16.15;;;;;;;;;;8383859;27;20358;-70
2021/04/19 20:47:40;;;;;;;48.30;16.55;;;;;;;;;;8384027;27;20359;-71
2021/04/19 20:51:46;;;;;;;47.78;16.50;;;;;;;;;;8383891;28;20473;-70
2021/04/19 20:55:50;;;;;;;53.95;17.92;;;;;;;;;;8384330;28;20357;-71
2021/04/19 20:59:54;;;;;;;40.25;15.38;;;;;;;;;;8382632;28;20490;-71
2021/04/19 21:03:58;;;;;;;62.92;18.38;;;;;;;;;;8384008;27;20474;-71
2021/04/19 21:08:03;;;;;;;54.03;19.63;;;;;;;;;;8366185;28;20451;-72
2021/04/19 21:12:10;;;;;;;37.00;14.65;;;;;;;;;;8386511;27;20047;-71
2021/04/19 21:16:27;;;;;;;28.55;11.80;;;;;;;;;;8361159;27;20051;-71
2021/04/19 21:20:32;;;;;;;37.47;12.18;;;;;;;;;;8360277;28;20043;-71
2021/04/19 21:24:37;;;;;;;28.48;10.23;;;;;;;;;;8360602;27;20373;-71
2021/04/19 21:28:42;;;;;;;20.30;9.65;;;;;;;;;;8360947;28;20442;-72
2021/04/19 21:32:46;;;;;;;33.83;11.98;;;;;;;;;;8358741;28;20466;-71
2021/04/19 21:36:51;;;;;;;27.40;9.90;;;;;;;;;;8360979;28;20043;-71
2021/04/19 21:40:56;;;;;;;29.17;10.77;;;;;;;;;;8359604;28;20055;-71
2021/04/19 21:45:00;;;;;;;28.20;10.55;;;;;;;;;;8360020;28;20324;-71
2021/04/19 21:49:13;;;;;;;27.73;10.35;;;;;;;;;;8360880;28;20458;-71
2021/04/19 21:53:18;;;;;;;33.35;10.98;;;;;;;;;;8358018;28;20473;-71
2021/04/19 21:57:22;;;;;;;28.20;11.27;;;;;;;;;;8358293;28;20044;-71
2021/04/19 22:01:27;;;;;;;46.50;14.07;;;;;;;;;;8357403;28;20458;-71
2021/04/19 22:05:31;;;;;;;38.15;12.35;;;;;;;;;;8358554;28;20371;-71
2021/04/19 22:09:34;;;;;;;41.40;13.55;;;;;;;;;;8359162;28;20474;-70
2021/04/19 22:13:39;;;;;;;61.88;16.70;;;;;;;;;;8360721;28;20386;-71
2021/04/19 22:17:44;;;;;;;47.97;13.90;;;;;;;;;;8358847;28;20474;-71
2021/04/19 22:21:48;;;;;;;44.42;13.55;;;;;;;;;;8357963;28;20392;-71
2021/04/19 22:25:53;;;;;;;44.63;13.35;;;;;;;;;;8339763;28;20488;-70
2021/04/19 22:29:58;;;;;;;36.63;12.95;;;;;;;;;;8358433;28;20488;-72
2021/04/19 22:34:04;;;;;;;29.92;11.70;;;;;;;;;;8357431;28;20363;-70
2021/04/19 22:38:08;;;;;;;25.88;11.98;;;;;;;;;;8356141;28;20347;-71
2021/04/19 22:42:13;;;;;;;26.52;11.25;;;;;;;;;;8356796;28;20043;-71
2021/04/19 22:46:18;;;;;;;31.63;11.95;;;;;;;;;;8357185;28;20460;-71
2021/04/19 22:50:23;;;;;;;29.70;11.30;;;;;;;;;;8357140;28;20342;-70
2021/04/19 22:54:28;;;;;;;31.58;11.77;;;;;;;;;;8356860;28;20381;-70
2021/04/19 22:58:33;;;;;;;32.20;12.10;;;;;;;;;;8356110;27;20377;-71
2021/04/19 23:02:36;;;;;;;34.75;13.30;;;;;;;;;;8354912;28;20478;-72
2021/04/19 23:06:40;;;;;;;37.72;13.15;;;;;;;;;;8358621;28;20374;-71
2021/04/19 23:10:45;;;;;;;35.05;13.75;;;;;;;;;;8356840;28;20382;-70
2021/04/19 23:14:50;;;;;;;40.90;12.85;;;;;;;;;;8357532;28;20469;-71
2021/04/19 23:18:54;;;;;;;32.17;14.13;;;;;;;;;;8355937;28;20409;-71
2021/04/19 23:22:58;;;;;;;30.85;13.88;;;;;;;;;;8353921;28;20074;-70
2021/04/19 23:27:05;;;;;;;33.00;12.50;;;;;;;;;;8359412;28;20465;-72
2021/04/19 23:31:09;;;;;;;28.92;12.75;;;;;;;;;;8357921;28;20462;-70
2021/04/19 23:35:13;;;;;;;25.80;12.13;;;;;;;;;;8356422;28;20443;-73
2021/04/19 23:39:19;;;;;;;21.83;10.48;;;;;;;;;;8356217;28;20473;-73
2021/04/19 23:43:23;;;;;;;22.92;10.73;;;;;;;;;;8354376;28;20459;-72
2021/04/19 23:47:27;;;;;;;31.15;11.90;;;;;;;;;;8357826;28;20466;-72
2021/04/19 23:51:32;;;;;;;26.23;10.35;;;;;;;;;;8355991;28;20504;-72
2021/04/19 23:55:37;;;;;;;28.38;11.25;;;;;;;;;;8357312;28;20354;-72
2021/04/19 23:59:41;;;;;;;24.20;11.68;;;;;;;;;;8354107;28;20390;-72
